createdAt,value
2019-02-18T05:35:10.401Z,11.70
2019-02-18T05:37:38.859Z,12.80
2019-02-18T05:40:08.149Z,15.70
2019-02-18T05:42:36.597Z,14.97
2019-02-18T05:45:07.607Z,16.60
2019-02-18T05:47:36.134Z,17.17
2019-02-18T05:50:06.184Z,18.40
2019-02-18T05:52:35.339Z,19.80
2019-02-18T05:55:05.814Z,17.27
2019-02-18T05:57:34.260Z,17.60
2019-02-18T06:00:02.884Z,18.03
2019-02-18T06:06:13.070Z,15.57
2019-02-18T06:08:41.516Z,15.93
2019-02-18T06:14:39.404Z,15.10
2019-02-18T06:17:07.938Z,15.00
2019-02-18T06:19:36.375Z,15.20
2019-02-18T06:22:04.812Z,18.87
2019-02-18T06:24:33.291Z,16.07
2019-02-18T06:27:01.722Z,16.00
2019-02-18T06:29:30.532Z,12.80
2019-02-18T06:35:28.119Z,12.87
2019-02-18T06:37:56.891Z,12.90
2019-02-18T06:40:25.417Z,12.53
2019-02-18T06:42:53.855Z,11.00
2019-02-18T06:45:40.295Z,13.03
2019-02-18T06:48:10.371Z,13.30
2019-02-18T06:50:39.168Z,16.80
2019-02-18T06:53:07.801Z,12.67
2019-02-18T06:55:36.241Z,15.37
2019-02-18T07:01:44.927Z,14.97
2019-02-18T07:04:15.015Z,15.73
2019-02-18T07:10:26.483Z,16.97
2019-02-18T07:16:36.219Z,18.20
2019-02-18T07:19:04.723Z,22.40
2019-02-18T07:21:33.158Z,14.90
2019-02-18T07:24:02.134Z,14.60
2019-02-18T07:26:30.932Z,14.53
2019-02-18T07:32:27.838Z,14.13
2019-02-18T07:34:56.279Z,13.93
2019-02-18T07:37:24.769Z,14.70
2019-02-18T07:40:00.994Z,14.40
2019-02-18T07:42:23.391Z,16.33
2019-02-18T07:44:51.850Z,16.07
2019-02-18T07:47:20.285Z,14.50
2019-02-18T07:49:48.730Z,16.97
2019-02-18T07:52:17.182Z,13.77
2019-02-18T07:54:45.623Z,15.80
2019-02-18T07:57:14.063Z,14.20
2019-02-18T07:59:42.911Z,15.67
2019-02-18T08:02:11.837Z,17.70
2019-02-18T08:04:40.271Z,17.57
2019-02-18T08:07:09.165Z,19.47
2019-02-18T08:09:37.896Z,18.90
2019-02-18T08:12:06.695Z,19.77
2019-02-18T08:14:35.480Z,18.80
2019-02-18T08:20:45.198Z,17.33
2019-02-18T08:23:13.634Z,17.20
2019-02-18T08:25:42.148Z,16.60
2019-02-18T08:28:10.606Z,18.07
2019-02-18T08:30:39.039Z,18.90
2019-02-18T08:33:07.748Z,18.03
2019-02-18T08:35:36.206Z,16.23
2019-02-18T08:38:04.712Z,15.00
2019-02-18T08:40:33.509Z,16.27
2019-02-18T08:46:18.771Z,17.10
2019-02-18T08:48:47.308Z,16.30
2019-02-18T08:51:15.737Z,16.93
2019-02-18T08:57:12.819Z,16.37
2019-02-18T08:59:41.366Z,15.43
2019-02-18T09:02:10.069Z,15.07
2019-02-18T09:04:38.507Z,15.93
2019-02-18T09:07:07.184Z,14.00
2019-02-18T09:09:35.630Z,15.10
2019-02-18T09:12:04.066Z,14.47
2019-02-18T09:18:01.534Z,15.77
2019-02-18T09:20:30.048Z,15.27
2019-02-18T09:23:05.871Z,15.17
2019-02-18T09:25:45.295Z,14.03
2019-02-18T09:31:55.480Z,13.87
2019-02-18T09:34:23.921Z,13.70
2019-02-18T09:36:52.363Z,14.23
2019-02-18T09:39:30.511Z,12.97
2019-02-18T09:41:51.262Z,12.83
2019-02-18T09:47:48.706Z,13.73
2019-02-18T09:50:17.552Z,14.53
2019-02-18T09:52:45.992Z,14.83
2019-02-18T09:55:14.439Z,15.00
2019-02-18T09:57:42.966Z,16.97
2019-02-18T10:00:12.654Z,17.90
2019-02-18T10:02:41.101Z,14.53
2019-02-18T10:05:10.059Z,15.40
2019-02-18T10:07:38.492Z,13.67
2019-02-18T10:10:09.572Z,13.97
2019-02-18T10:12:38.274Z,13.70
2019-02-18T10:15:10.955Z,13.43
2019-02-18T10:17:39.401Z,11.57
2019-02-18T10:20:12.128Z,11.47
2019-02-18T10:26:21.602Z,10.80
2019-02-18T10:28:50.043Z,13.67
2019-02-18T10:31:18.499Z,12.00
2019-02-18T10:33:46.975Z,11.63
2019-02-18T10:36:15.416Z,10.70
2019-02-18T10:42:12.710Z,10.80
2019-02-18T10:44:41.166Z,9.37
2019-02-18T10:50:50.678Z,9.17
2019-02-18T10:53:19.115Z,9.37
2019-02-18T10:55:47.552Z,8.67
2019-02-18T10:58:16.013Z,9.63
2019-02-18T11:00:44.884Z,10.20
2019-02-18T11:06:41.959Z,10.43
2019-02-18T11:09:11.489Z,11.47
2019-02-18T11:15:21.534Z,10.50
2019-02-18T11:17:49.960Z,10.50
2019-02-18T11:20:18.408Z,14.70
2019-02-18T11:26:15.279Z,11.17
2019-02-18T11:28:43.719Z,11.33
2019-02-18T11:31:12.176Z,12.07
2019-02-18T11:33:40.893Z,11.47
2019-02-18T11:39:38.451Z,11.43
2019-02-18T11:42:07.284Z,12.10
2019-02-18T11:44:35.755Z,13.33
2019-02-18T11:47:04.199Z,11.63
2019-02-18T11:49:32.707Z,12.57
2019-02-18T11:55:31.100Z,13.37
2019-02-18T11:57:59.703Z,11.07
2019-02-18T12:04:09.387Z,11.50
2019-02-18T12:10:18.926Z,11.97
2019-02-18T12:12:47.371Z,11.47
2019-02-18T12:15:16.265Z,11.00
2019-02-18T12:17:44.964Z,11.27
2019-02-18T12:20:16.963Z,14.87
2019-02-18T12:26:14.100Z,11.87
2019-02-18T12:28:42.530Z,13.30
2019-02-18T12:31:12.890Z,13.53
2019-02-18T12:33:41.326Z,15.60
2019-02-18T12:36:09.772Z,14.20
2019-02-18T12:38:38.606Z,14.00
2019-02-18T12:41:07.110Z,14.57
2019-02-18T12:43:35.879Z,14.60
2019-02-18T12:46:04.421Z,15.93
2019-02-18T12:48:35.226Z,15.70
2019-02-18T12:51:03.103Z,13.87
2019-02-18T12:57:00.555Z,14.50
2019-02-18T12:59:29.550Z,15.27
2019-02-18T13:01:58.260Z,15.10
2019-02-18T13:04:26.787Z,15.97
2019-02-18T13:06:55.852Z,15.77
2019-02-18T13:09:24.363Z,14.00
2019-02-18T13:11:58.919Z,15.77
2019-02-18T13:14:23.075Z,15.07
2019-02-18T13:16:51.885Z,12.93
2019-02-18T13:19:20.403Z,18.13
2019-02-18T13:21:48.978Z,13.80
2019-02-18T13:27:58.675Z,18.30
2019-02-18T13:30:27.115Z,15.43
2019-02-18T13:32:55.638Z,16.20
2019-02-18T13:38:53.494Z,15.17
2019-02-18T13:41:22.323Z,17.37
2019-02-18T13:43:51.600Z,16.73
2019-02-18T13:46:20.178Z,17.83
2019-02-18T13:48:48.619Z,19.90
2019-02-18T13:51:24.015Z,16.90
2019-02-18T13:53:47.619Z,20.83
2019-02-18T13:56:16.501Z,20.10
2019-02-18T13:58:44.971Z,16.17
2019-02-18T14:01:13.727Z,19.23
2019-02-18T14:03:42.171Z,18.87
2019-02-18T14:06:10.874Z,19.93
2019-02-18T14:08:39.384Z,16.17
2019-02-18T14:11:07.827Z,16.83
2019-02-18T14:13:36.339Z,20.13
2019-02-18T14:16:05.058Z,17.13
2019-02-18T14:18:33.580Z,19.53
2019-02-18T14:21:02.202Z,17.87
2019-02-18T14:23:30.638Z,20.30
2019-02-18T14:25:59.149Z,19.43
2019-02-18T14:31:56.087Z,16.53
2019-02-18T14:34:24.929Z,14.67
2019-02-18T14:40:24.499Z,16.13
2019-02-18T14:42:55.011Z,16.30
2019-02-18T14:45:23.793Z,18.13
2019-02-18T14:47:52.239Z,20.33
2019-02-18T14:50:20.868Z,17.33
2019-02-18T14:56:31.051Z,14.87
2019-02-18T14:58:59.796Z,16.20
2019-02-18T15:04:57.266Z,17.17
2019-02-18T15:10:55.251Z,16.60
2019-02-18T15:13:24.514Z,12.93
2019-02-18T15:19:34.391Z,16.63
2019-02-18T15:25:20.331Z,20.90
2019-02-18T15:27:48.998Z,16.03
2019-02-18T15:30:17.683Z,17.80
2019-02-18T15:32:46.457Z,17.17
2019-02-18T15:35:15.616Z,16.47
2019-02-18T15:41:12.541Z,15.87
2019-02-18T15:43:41.046Z,14.27
2019-02-18T15:46:09.591Z,16.33
2019-02-18T15:48:38.319Z,13.10
2019-02-18T15:51:06.850Z,15.73
2019-02-18T15:53:35.614Z,14.57
2019-02-18T15:56:04.147Z,12.93
2019-02-18T15:58:32.918Z,12.40
2019-02-18T16:04:43.150Z,17.00
2019-02-18T16:07:11.671Z,23.13
2019-02-18T16:13:09.380Z,14.50
2019-02-18T16:15:37.945Z,14.27
2019-02-18T16:18:06.467Z,18.47
2019-02-18T16:24:03.835Z,14.50
2019-02-18T16:26:32.276Z,16.23
2019-02-18T16:32:30.035Z,18.67
2019-02-18T16:34:58.467Z,19.30
2019-02-18T16:37:27.596Z,19.27
2019-02-18T16:43:24.956Z,20.17
2019-02-18T16:49:22.185Z,17.77
2019-02-18T16:55:19.543Z,19.90
2019-02-18T16:57:48.092Z,16.20
2019-02-18T17:03:58.007Z,18.30
2019-02-18T17:10:08.530Z,14.90
2019-02-18T17:12:37.042Z,15.23
2019-02-18T17:15:09.059Z,21.75
2019-02-18T17:21:06.115Z,16.30
2019-02-18T17:27:05.085Z,18.70
2019-02-18T17:33:03.713Z,23.30
2019-02-18T17:39:01.201Z,21.17
2019-02-18T17:44:46.788Z,25.67
2019-02-18T17:47:15.774Z,26.37
2019-02-18T17:49:44.262Z,26.17
2019-02-18T17:52:12.794Z,32.37
2019-02-18T17:54:41.350Z,29.25
2019-02-18T18:27:57.022Z,27.03
2019-02-18T18:30:25.564Z,23.97
2019-02-18T18:32:54.072Z,25.43
2019-02-18T18:35:22.587Z,22.50
2019-02-18T18:37:51.699Z,25.97
2019-02-18T18:40:20.817Z,23.33
2019-02-18T18:42:49.255Z,22.93
2019-02-18T18:45:18.376Z,24.03
2019-02-18T18:47:46.974Z,21.50
2019-02-18T18:50:20.067Z,20.87
2019-02-18T18:52:48.527Z,22.37
2019-02-18T18:55:17.433Z,21.40
2019-02-18T18:57:46.020Z,22.90
2019-02-18T19:31:13.122Z,26.20
2019-02-18T19:33:41.884Z,22.27
2019-02-18T19:36:10.837Z,23.93
2019-02-18T19:38:39.342Z,24.13
2019-02-18T19:44:48.862Z,25.67
2019-02-18T19:47:17.299Z,24.80
2019-02-18T19:49:46.165Z,24.93
2019-02-18T19:55:43.761Z,23.30
2019-02-18T19:58:13.678Z,27.87
2019-02-18T20:00:42.131Z,25.77
2019-02-18T20:03:10.586Z,24.07
2019-02-18T20:05:39.041Z,23.63
2019-02-18T20:08:07.479Z,24.37
2019-02-18T20:10:36.362Z,25.40
2019-02-18T20:13:04.839Z,27.50
2019-02-18T20:15:33.274Z,29.57
2019-02-18T20:21:30.908Z,28.87
2019-02-18T20:24:00.034Z,23.87
2019-02-18T20:30:17.954Z,27.55
2019-02-18T20:36:28.079Z,25.93
2019-02-18T20:42:37.913Z,28.40
2019-02-18T20:45:09.661Z,27.73
2019-02-18T20:51:06.458Z,25.20
2019-02-18T20:57:03.829Z,28.27
2019-02-18T21:03:00.789Z,27.23
2019-02-18T21:08:59.530Z,24.13
2019-02-18T21:14:57.640Z,26.13
2019-02-18T21:20:55.252Z,25.10
2019-02-18T21:23:23.889Z,24.47
2019-02-18T21:25:52.438Z,26.50
2019-02-18T21:28:20.880Z,28.20
2019-02-18T21:30:49.729Z,24.77
2019-02-18T21:36:59.374Z,24.50
2019-02-18T21:39:27.811Z,24.60
2019-02-18T21:41:56.253Z,24.70
2019-02-18T21:47:53.242Z,24.87
2019-02-18T21:53:50.796Z,24.23
2019-02-18T21:59:48.691Z,25.67
2019-02-18T22:02:17.136Z,28.67
2019-02-18T22:08:14.705Z,24.50
2019-02-18T22:14:12.498Z,28.57
2019-02-18T22:16:41.451Z,23.60
2019-02-18T22:19:10.064Z,24.40
2019-02-18T22:21:38.502Z,24.03
2019-02-18T22:24:07.406Z,24.33
2019-02-18T22:30:17.130Z,22.60
2019-02-18T22:32:45.562Z,22.63
2019-02-18T22:38:43.527Z,21.67
2019-02-18T22:41:13.013Z,23.40
2019-02-18T22:43:43.206Z,21.53
2019-02-18T22:46:11.665Z,23.70
2019-02-18T22:48:40.179Z,21.97
2019-02-18T22:51:08.618Z,20.50
2019-02-18T22:53:37.063Z,21.85
2019-02-18T22:56:05.890Z,24.53
2019-02-18T22:58:34.322Z,21.13
2019-02-18T23:01:04.268Z,20.97
2019-02-18T23:03:32.732Z,21.43
2019-02-18T23:09:42.620Z,22.83
2019-02-18T23:12:11.662Z,21.10
2019-02-18T23:14:40.454Z,22.93
2019-02-18T23:17:08.929Z,23.20
2019-02-18T23:19:37.362Z,24.83
2019-02-18T23:22:05.875Z,23.57
2019-02-18T23:24:35.018Z,22.20
2019-02-18T23:30:32.511Z,24.17
2019-02-18T23:33:00.983Z,23.00
2019-02-18T23:35:29.436Z,23.97
2019-02-18T23:37:58.025Z,20.97
2019-02-18T23:40:26.542Z,23.33
2019-02-18T23:42:54.970Z,21.47
2019-02-18T23:45:23.730Z,22.30
2019-02-18T23:47:52.167Z,22.90
2019-02-18T23:50:20.605Z,23.87
2019-02-18T23:52:49.164Z,24.10
2019-02-18T23:55:17.606Z,22.87
2019-02-18T23:57:46.119Z,18.87
